createdAt,value
2023-02-16T00:02:00.187Z,0.05
2023-02-16T00:04:30.081Z,-0.03
2023-02-16T00:06:59.316Z,-0.02
2023-02-16T00:09:26.825Z,-0.02
2023-02-16T00:12:11.912Z,-0.20
2023-02-16T00:14:40.693Z,-0.32
2023-02-16T00:17:11.853Z,-0.42
2023-02-16T00:19:41.908Z,-0.50
2023-02-16T00:22:11.560Z,-0.54
2023-02-16T00:24:39.125Z,-0.68
2023-02-16T00:27:14.329Z,-0.82
2023-02-16T00:29:44.777Z,-0.80
2023-02-16T00:32:14.506Z,-0.90
2023-02-16T00:34:45.211Z,-0.96
2023-02-16T00:37:15.272Z,-1.01
2023-02-16T00:39:44.481Z,-1.06
2023-02-16T00:42:18.348Z,-1.12
2023-02-16T00:44:48.911Z,-1.13
2023-02-16T00:47:20.389Z,-1.09
2023-02-16T00:49:48.538Z,-1.07
2023-02-16T00:52:36.452Z,-0.95
2023-02-16T00:55:07.478Z,-0.90
2023-02-16T00:57:38.438Z,-0.89
2023-02-16T01:00:09.605Z,-0.95
2023-02-16T01:02:37.229Z,-0.96
2023-02-16T01:05:04.934Z,-0.86
2023-02-16T01:07:51.299Z,-0.95
2023-02-16T01:10:36.636Z,-0.92
2023-02-16T01:13:04.637Z,-0.82
2023-02-16T01:15:32.729Z,-0.79
2023-02-16T01:18:00.499Z,-0.76
2023-02-16T01:20:28.798Z,-0.73
2023-02-16T01:22:57.812Z,-0.64
2023-02-16T01:25:25.553Z,-0.57
2023-02-16T01:27:54.562Z,-0.57
2023-02-16T01:30:24.087Z,-0.55
2023-02-16T01:32:52.338Z,-0.50
2023-02-16T01:35:20.918Z,-0.49
2023-02-16T01:37:48.698Z,-0.47
2023-02-16T01:40:31.536Z,-0.61
2023-02-16T01:43:05.264Z,-0.63
2023-02-16T01:45:36.758Z,-0.60
2023-02-16T01:48:06.958Z,-0.71
2023-02-16T01:50:46.917Z,-0.70
2023-02-16T01:53:23.406Z,-0.69
2023-02-16T01:55:59.285Z,-0.72
2023-02-16T01:58:36.612Z,-0.68
2023-02-16T02:01:37.284Z,-0.66
2023-02-16T02:04:30.622Z,-0.63
2023-02-16T02:06:58.290Z,-0.63
2023-02-16T02:09:35.718Z,-0.61
2023-02-16T02:12:14.979Z,-0.64
2023-02-16T02:14:43.532Z,-0.58
2023-02-16T02:17:15.812Z,-0.55
2023-02-16T02:19:52.073Z,-0.58
2023-02-16T02:23:21.840Z,-0.62
2023-02-16T02:26:15.215Z,-0.67
2023-02-16T02:28:54.410Z,-0.65
2023-02-16T02:31:35.242Z,-0.65
2023-02-16T02:34:13.774Z,-0.61
2023-02-16T02:36:50.895Z,-0.68
2023-02-16T02:39:34.121Z,-0.83
2023-02-16T02:42:10.631Z,-0.98
2023-02-16T02:44:50.803Z,-1.10
2023-02-16T02:47:18.984Z,-1.09
2023-02-16T02:49:51.810Z,-1.08
2023-02-16T02:52:20.244Z,-1.06
2023-02-16T02:55:07.354Z,-1.11
2023-02-16T02:57:59.392Z,-1.15
2023-02-16T03:00:44.936Z,-1.15
2023-02-16T03:03:18.561Z,-1.17
2023-02-16T03:05:50.401Z,-1.18
2023-02-16T03:08:21.544Z,-1.19
2023-02-16T03:11:10.317Z,-1.27
2023-02-16T03:13:41.210Z,-1.24
2023-02-16T03:16:14.032Z,-1.26
2023-02-16T03:19:02.130Z,-1.25
2023-02-16T03:21:48.076Z,-1.28
2023-02-16T03:24:40.057Z,-1.34
2023-02-16T03:27:27.448Z,-1.30
2023-02-16T03:29:57.774Z,-1.28
2023-02-16T03:32:26.960Z,-1.24
2023-02-16T03:34:54.613Z,-1.18
2023-02-16T03:37:22.146Z,-1.15
2023-02-16T03:40:08.108Z,-1.17
2023-02-16T03:42:35.707Z,-1.15
2023-02-16T03:45:03.376Z,-1.11
2023-02-16T03:47:32.322Z,-1.10
2023-02-16T03:49:59.912Z,-1.08
2023-02-16T03:52:27.558Z,-1.08
2023-02-16T03:54:55.083Z,-1.14
2023-02-16T03:57:22.587Z,-1.19
2023-02-16T03:59:50.805Z,-1.22
2023-02-16T04:02:18.442Z,-1.32
2023-02-16T04:04:47.861Z,-1.34
2023-02-16T04:07:15.460Z,-1.38
2023-02-16T04:09:43.053Z,-1.37
2023-02-16T04:12:30.183Z,-1.39
2023-02-16T04:14:58.005Z,-1.40
2023-02-16T04:17:25.717Z,-1.39
2023-02-16T04:19:54.634Z,-1.40
2023-02-16T04:22:22.247Z,-1.46
2023-02-16T04:24:49.802Z,-1.49
2023-02-16T04:27:17.347Z,-1.52
2023-02-16T04:29:44.959Z,-1.53
2023-02-16T04:32:12.629Z,-1.53
2023-02-16T04:34:40.170Z,-1.50
2023-02-16T04:37:09.188Z,-1.50
2023-02-16T04:39:36.815Z,-1.53
2023-02-16T04:42:05.064Z,-1.50
2023-02-16T04:44:32.682Z,-1.52
2023-02-16T04:47:00.444Z,-1.52
2023-02-16T04:49:28.067Z,-1.49
2023-02-16T04:51:55.767Z,-1.50
2023-02-16T04:54:24.691Z,-1.52
2023-02-16T04:56:52.216Z,-1.52
2023-02-16T04:59:19.986Z,-1.51
2023-02-16T05:01:47.592Z,-1.50
2023-02-16T05:04:16.482Z,-1.53
2023-02-16T05:06:44.290Z,-1.55
2023-02-16T05:09:12.378Z,-1.58
2023-02-16T05:11:58.653Z,-1.58
2023-02-16T05:14:44.981Z,-1.58
2023-02-16T05:17:15.956Z,-1.60
2023-02-16T05:19:45.051Z,-1.61
2023-02-16T05:22:12.944Z,-1.66
2023-02-16T05:24:40.846Z,-1.69
2023-02-16T05:27:13.346Z,-1.64
2023-02-16T05:29:41.179Z,-1.63
2023-02-16T05:32:08.870Z,-1.62
2023-02-16T05:34:36.480Z,-1.67
2023-02-16T05:37:04.135Z,-1.66
2023-02-16T05:39:31.868Z,-1.71
2023-02-16T05:42:00.020Z,-1.69
2023-02-16T05:44:29.045Z,-1.68
2023-02-16T05:46:56.985Z,-1.68
2023-02-16T05:49:24.657Z,-1.70
2023-02-16T05:51:52.591Z,-1.76
2023-02-16T05:54:20.307Z,-1.81
2023-02-16T05:56:49.907Z,-1.87
2023-02-16T05:59:18.243Z,-1.85
2023-02-16T06:01:51.319Z,-1.84
2023-02-16T06:04:21.044Z,-1.88
2023-02-16T06:06:48.697Z,-1.90
2023-02-16T06:09:16.373Z,-1.93
2023-02-16T06:11:44.150Z,-1.96
2023-02-16T06:14:13.788Z,-2.01
2023-02-16T06:16:44.233Z,-2.02
2023-02-16T06:19:13.505Z,-2.04
2023-02-16T06:21:41.988Z,-1.99
2023-02-16T06:24:11.724Z,-2.00
2023-02-16T06:26:39.391Z,-2.02
2023-02-16T06:29:07.448Z,-2.04
2023-02-16T06:31:36.554Z,-2.03
2023-02-16T06:34:05.299Z,-2.01
2023-02-16T06:36:35.146Z,-2.01
2023-02-16T06:39:02.773Z,-2.05
2023-02-16T06:41:35.681Z,-2.07
2023-02-16T06:44:06.121Z,-2.04
2023-02-16T06:46:33.894Z,-2.06
2023-02-16T06:49:02.206Z,-2.05
2023-02-16T06:51:29.832Z,-2.07
2023-02-16T06:53:58.754Z,-2.06
2023-02-16T06:56:26.467Z,-2.03
2023-02-16T06:58:54.103Z,-1.88
2023-02-16T07:01:25.585Z,-1.89
2023-02-16T07:03:55.067Z,-1.87
2023-02-16T07:06:24.070Z,-1.87
2023-02-16T07:08:51.660Z,-1.87
2023-02-16T07:11:21.188Z,-1.80
2023-02-16T07:13:49.086Z,-1.81
2023-02-16T07:16:17.429Z,-1.80
2023-02-16T07:18:46.142Z,-1.79
2023-02-16T07:21:14.150Z,-1.81
2023-02-16T07:23:41.739Z,-1.77
2023-02-16T07:26:09.624Z,-1.61
2023-02-16T07:28:38.638Z,-1.36
2023-02-16T07:31:10.309Z,-1.17
2023-02-16T07:33:38.764Z,-1.09
2023-02-16T07:36:07.294Z,-0.98
2023-02-16T07:38:35.213Z,-0.88
2023-02-16T07:41:03.569Z,-0.71
2023-02-16T07:43:31.944Z,-0.66
2023-02-16T07:46:00.975Z,-0.59
2023-02-16T07:48:28.666Z,-0.53
2023-02-16T07:50:56.310Z,-0.56
2023-02-16T07:53:23.861Z,-0.60
2023-02-16T07:55:51.493Z,-0.68
2023-02-16T07:58:28.041Z,-0.71
2023-02-16T08:00:57.032Z,-0.72
2023-02-16T08:03:26.014Z,-0.70
2023-02-16T08:05:56.600Z,-0.67
2023-02-16T08:08:24.369Z,-0.68
2023-02-16T08:10:51.972Z,-0.60
2023-02-16T08:13:19.696Z,-0.50
2023-02-16T08:15:47.285Z,-0.36
2023-02-16T08:18:15.203Z,-0.29
2023-02-16T08:21:03.963Z,-0.19
2023-02-16T08:23:32.349Z,-0.10
2023-02-16T08:26:00.009Z,-0.05
2023-02-16T08:28:28.881Z,0.07
2023-02-16T08:30:56.938Z,0.16
2023-02-16T08:33:24.994Z,0.25
2023-02-16T08:35:54.142Z,0.36
2023-02-16T08:38:21.749Z,0.46
2023-02-16T08:40:49.663Z,0.65
2023-02-16T08:43:17.376Z,0.74
2023-02-16T08:45:45.233Z,0.85
2023-02-16T08:48:12.788Z,0.83
2023-02-16T08:50:46.886Z,1.21
2023-02-16T08:53:15.887Z,1.51
2023-02-16T08:55:43.481Z,1.76
2023-02-16T08:58:11.066Z,1.95
2023-02-16T09:00:38.885Z,1.99
2023-02-16T09:03:06.957Z,2.07
2023-02-16T09:05:35.208Z,2.07
2023-02-16T09:08:03.425Z,2.16
2023-02-16T09:10:32.873Z,2.30
2023-02-16T09:13:00.509Z,2.46
2023-02-16T09:15:28.690Z,2.55
2023-02-16T09:17:56.385Z,2.67
2023-02-16T09:20:24.484Z,2.79
2023-02-16T09:22:52.476Z,2.94
2023-02-16T09:25:20.106Z,3.08
2023-02-16T09:27:49.461Z,3.27
2023-02-16T09:30:17.337Z,3.46
2023-02-16T09:32:45.132Z,3.57
2023-02-16T09:35:12.744Z,3.71
2023-02-16T09:37:40.280Z,3.85
2023-02-16T09:40:11.701Z,4.01
2023-02-16T09:43:00.691Z,4.13
2023-02-16T09:45:29.618Z,4.41
2023-02-16T09:47:59.220Z,4.55
2023-02-16T09:50:53.935Z,4.90
2023-02-16T09:53:22.995Z,5.08
2023-02-16T09:56:03.106Z,5.30
2023-02-16T09:58:40.505Z,5.66
2023-02-16T10:01:17.967Z,5.88
2023-02-16T10:03:55.480Z,6.03
2023-02-16T10:06:33.087Z,6.33
2023-02-16T10:09:07.331Z,6.62
2023-02-16T10:11:42.603Z,6.66
2023-02-16T10:14:23.273Z,6.84
2023-02-16T10:16:57.989Z,6.90
2023-02-16T10:19:30.291Z,6.88
2023-02-16T10:22:01.180Z,6.83
2023-02-16T10:24:32.672Z,6.82
2023-02-16T10:27:07.524Z,6.84
2023-02-16T10:29:36.490Z,7.23
2023-02-16T10:32:13.443Z,7.43
2023-02-16T10:34:49.429Z,7.48
2023-02-16T10:37:42.632Z,7.70
2023-02-16T10:40:24.263Z,7.82
2023-02-16T10:42:59.399Z,7.73
2023-02-16T10:45:34.200Z,7.83
2023-02-16T10:48:01.812Z,8.00
2023-02-16T10:50:33.025Z,8.19
2023-02-16T10:53:05.584Z,8.42
2023-02-16T10:55:33.149Z,8.60
2023-02-16T10:58:02.967Z,8.94
2023-02-16T11:00:46.700Z,9.09
2023-02-16T11:03:15.824Z,9.26
2023-02-16T11:05:43.542Z,9.42
2023-02-16T11:08:12.850Z,9.64
2023-02-16T11:10:49.004Z,9.95
2023-02-16T11:13:32.886Z,10.30
2023-02-16T11:16:07.155Z,10.96
2023-02-16T11:18:37.850Z,11.57
2023-02-16T11:21:07.370Z,12.22
2023-02-16T11:23:36.407Z,12.68
2023-02-16T11:26:06.590Z,12.85
2023-02-16T11:28:36.944Z,13.08
2023-02-16T11:35:11.462Z,13.03
2023-02-16T11:37:41.585Z,13.14
2023-02-16T11:40:21.486Z,12.93
2023-02-16T11:42:51.956Z,13.28
2023-02-16T11:45:29.620Z,13.63
2023-02-16T11:48:01.508Z,13.99
2023-02-16T11:50:33.467Z,14.63
2023-02-16T11:53:16.199Z,15.31
2023-02-16T11:55:46.525Z,15.81
2023-02-16T11:58:17.354Z,16.27
2023-02-16T12:00:57.479Z,16.69
2023-02-16T12:03:44.817Z,16.93
2023-02-16T12:06:28.686Z,17.36
2023-02-16T12:09:09.003Z,17.79
2023-02-16T12:11:44.733Z,18.07
2023-02-16T12:14:24.729Z,18.30
2023-02-16T12:16:58.628Z,17.91
2023-02-16T12:19:39.402Z,18.14
2023-02-16T12:22:17.334Z,17.88
2023-02-16T12:24:54.467Z,17.02
2023-02-16T12:27:27.481Z,17.27
2023-02-16T12:30:01.759Z,17.27
2023-02-16T12:32:43.937Z,16.90
2023-02-16T12:35:34.503Z,16.80
2023-02-16T12:38:14.344Z,16.63
2023-02-16T12:40:52.517Z,16.76
2023-02-16T12:43:33.532Z,16.25
2023-02-16T12:46:07.181Z,16.31
2023-02-16T12:48:43.145Z,16.25
2023-02-16T12:51:16.503Z,16.07
2023-02-16T12:53:47.865Z,16.08
2023-02-16T12:56:21.473Z,16.00
2023-02-16T12:58:55.324Z,15.89
2023-02-16T13:01:26.691Z,15.51
2023-02-16T13:03:58.544Z,15.30
2023-02-16T13:06:30.610Z,15.45
2023-02-16T13:09:12.150Z,16.07
2023-02-16T13:11:46.560Z,16.65
2023-02-16T13:14:18.601Z,17.31
2023-02-16T13:16:50.871Z,17.95
2023-02-16T13:19:18.533Z,17.82
2023-02-16T13:22:19.372Z,17.70
2023-02-16T13:24:59.863Z,17.63
2023-02-16T13:27:36.959Z,17.32
2023-02-16T13:30:38.133Z,16.95
2023-02-16T13:33:21.884Z,17.56
2023-02-16T13:35:58.644Z,17.74
2023-02-16T13:38:50.932Z,17.58
2023-02-16T13:41:35.616Z,17.16
2023-02-16T13:44:08.977Z,17.31
2023-02-16T13:46:39.442Z,17.40
2023-02-16T13:49:07.563Z,17.56
2023-02-16T13:51:43.392Z,17.50
2023-02-16T13:54:27.845Z,17.05
2023-02-16T13:56:56.841Z,16.36
2023-02-16T13:59:57.532Z,15.90
2023-02-16T14:02:58.588Z,15.58
2023-02-16T14:05:35.191Z,15.38
2023-02-16T14:08:30.332Z,15.35
2023-02-16T14:11:04.524Z,15.51
2023-02-16T14:13:45.261Z,15.12
2023-02-16T14:16:27.036Z,15.14
2023-02-16T14:18:58.166Z,15.10
2023-02-16T14:21:33.029Z,15.11
2023-02-16T14:24:03.207Z,15.08
2023-02-16T14:26:31.710Z,15.11
2023-02-16T14:29:12.365Z,14.90
2023-02-16T14:31:45.317Z,14.74
2023-02-16T14:34:18.776Z,14.70
2023-02-16T14:37:04.509Z,14.81
2023-02-16T14:39:34.966Z,14.84
2023-02-16T14:42:08.482Z,14.88
2023-02-16T14:44:56.227Z,14.96
2023-02-16T14:47:37.883Z,14.93
2023-02-16T14:50:24.066Z,14.93
2023-02-16T14:53:17.808Z,14.81
2023-02-16T14:56:28.436Z,14.94
2023-02-16T14:59:01.546Z,14.99
2023-02-16T15:01:41.082Z,15.15
2023-02-16T15:04:10.844Z,15.05
2023-02-16T15:06:42.580Z,14.93
2023-02-16T15:09:17.640Z,14.85
2023-02-16T15:12:08.895Z,14.71
2023-02-16T15:14:42.967Z,14.60
2023-02-16T15:17:25.238Z,14.47
2023-02-16T15:19:54.641Z,14.42
2023-02-16T15:22:25.354Z,14.33
2023-02-16T15:24:58.070Z,14.22
2023-02-16T15:27:25.962Z,14.13
2023-02-16T15:30:09.311Z,14.13
2023-02-16T15:32:38.832Z,14.01
2023-02-16T15:35:14.370Z,13.94
2023-02-16T15:37:41.951Z,13.89
2023-02-16T15:40:30.682Z,13.86
2023-02-16T15:43:04.019Z,13.78
2023-02-16T15:45:35.148Z,13.71
2023-02-16T15:48:22.806Z,13.60
2023-02-16T15:50:53.455Z,13.56
2023-02-16T15:53:34.783Z,13.49
2023-02-16T15:56:05.904Z,13.40
2023-02-16T15:58:34.135Z,13.34
2023-02-16T16:01:02.483Z,13.30
2023-02-16T16:03:34.247Z,13.28
2023-02-16T16:06:06.036Z,13.23
2023-02-16T16:08:34.141Z,13.18
2023-02-16T16:11:02.659Z,13.13
2023-02-16T16:13:32.870Z,13.09
2023-02-16T16:16:07.130Z,13.05
2023-02-16T16:18:44.103Z,12.98
2023-02-16T16:21:19.119Z,12.90
2023-02-16T16:23:58.831Z,12.80
2023-02-16T16:26:28.097Z,12.71
2023-02-16T16:28:57.017Z,12.64
2023-02-16T16:31:39.378Z,12.57
2023-02-16T16:34:10.448Z,12.50
2023-02-16T16:36:41.833Z,12.43
2023-02-16T16:39:20.108Z,12.34
2023-02-16T16:42:07.889Z,12.26
2023-02-16T16:44:37.647Z,12.18
2023-02-16T16:47:14.500Z,12.10
2023-02-16T16:49:51.334Z,12.01
2023-02-16T16:52:40.915Z,11.91
2023-02-16T16:55:22.423Z,11.83
2023-02-16T16:57:51.769Z,11.75
2023-02-16T17:00:20.424Z,11.68
2023-02-16T17:02:48.474Z,11.64
2023-02-16T17:05:17.674Z,11.56
2023-02-16T17:07:48.933Z,11.50
2023-02-16T17:10:18.709Z,11.42
2023-02-16T17:12:47.026Z,11.36
2023-02-16T17:15:30.228Z,11.33
2023-02-16T17:17:58.870Z,11.26
2023-02-16T17:20:27.966Z,11.22
2023-02-16T17:22:55.708Z,11.13
2023-02-16T17:25:23.330Z,11.07
2023-02-16T17:27:51.211Z,11.03
2023-02-16T17:30:18.831Z,10.98
2023-02-16T17:32:46.346Z,10.93
2023-02-16T17:35:14.726Z,10.88
2023-02-16T17:37:43.687Z,10.83
2023-02-16T17:40:15.336Z,10.79
2023-02-16T17:42:42.902Z,10.75
2023-02-16T17:45:10.832Z,10.71
2023-02-16T17:47:38.471Z,10.65
2023-02-16T17:50:07.242Z,10.62
2023-02-16T17:52:38.735Z,10.61
2023-02-16T17:55:08.963Z,10.61
2023-02-16T17:57:37.339Z,10.56
2023-02-16T18:00:07.104Z,10.51
2023-02-16T18:02:34.967Z,10.47
2023-02-16T18:05:02.686Z,10.43
2023-02-16T18:07:30.367Z,10.42
2023-02-16T18:09:57.909Z,10.36
2023-02-16T18:12:28.391Z,10.28
2023-02-16T18:14:56.196Z,10.23
2023-02-16T18:17:23.789Z,10.19
2023-02-16T18:19:51.411Z,10.15
2023-02-16T18:22:18.965Z,10.09
2023-02-16T18:24:50.294Z,10.05
2023-02-16T18:27:21.416Z,10.02
2023-02-16T18:29:52.076Z,9.97
2023-02-16T18:32:19.695Z,9.92
2023-02-16T18:34:48.351Z,9.90
2023-02-16T18:37:16.074Z,9.86
2023-02-16T18:39:43.792Z,9.82
2023-02-16T18:42:11.515Z,9.83
2023-02-16T18:44:39.143Z,9.77
2023-02-16T18:47:08.749Z,9.77
2023-02-16T18:49:36.399Z,9.76
2023-02-16T18:52:04.111Z,9.73
2023-02-16T18:54:32.250Z,9.73
2023-02-16T18:56:59.832Z,9.72
2023-02-16T18:59:27.496Z,9.71
2023-02-16T19:01:56.827Z,9.72
2023-02-16T19:04:26.700Z,9.68
2023-02-16T19:06:54.319Z,9.67
2023-02-16T19:09:22.019Z,9.65
2023-02-16T19:11:49.658Z,9.61
2023-02-16T19:14:18.512Z,9.59
2023-02-16T19:16:46.551Z,9.55
2023-02-16T19:19:14.215Z,9.54
2023-02-16T19:21:44.273Z,9.54
2023-02-16T19:24:12.889Z,9.52
2023-02-16T19:26:40.765Z,9.52
2023-02-16T19:29:08.521Z,9.54
2023-02-16T19:31:36.374Z,9.46
2023-02-16T19:34:08.138Z,9.46
2023-02-16T19:36:35.784Z,9.42
2023-02-16T19:39:04.704Z,9.40
2023-02-16T19:41:35.694Z,9.31
2023-02-16T19:44:07.653Z,9.31
2023-02-16T19:46:35.397Z,9.25
2023-02-16T19:49:03.381Z,9.23
2023-02-16T19:51:31.355Z,9.22
2023-02-16T19:53:59.425Z,9.13
2023-02-16T19:56:28.669Z,9.09
2023-02-16T19:58:58.877Z,9.07
2023-02-16T20:01:28.657Z,9.03
2023-02-16T20:03:58.056Z,9.03
2023-02-16T20:06:28.178Z,9.04
2023-02-16T20:08:57.414Z,9.04
2023-02-16T20:11:28.924Z,9.04
2023-02-16T20:13:57.056Z,9.02
2023-02-16T20:16:26.310Z,8.98
2023-02-16T20:18:54.459Z,8.96
2023-02-16T20:21:23.944Z,8.97
2023-02-16T20:23:54.882Z,9.00
2023-02-16T20:26:24.363Z,8.94
2023-02-16T20:28:53.958Z,8.94
2023-02-16T20:31:26.103Z,9.01
2023-02-16T20:33:54.157Z,9.00
2023-02-16T20:36:22.708Z,9.03
2023-02-16T20:38:51.240Z,9.05
2023-02-16T20:41:19.686Z,9.13
2023-02-16T20:43:48.035Z,9.11
2023-02-16T20:46:18.502Z,9.19
2023-02-16T20:48:46.328Z,9.21
2023-02-16T20:51:18.672Z,9.29
2023-02-16T20:53:47.615Z,9.32
2023-02-16T20:56:19.516Z,9.44
2023-02-16T20:58:49.451Z,9.93
2023-02-16T21:01:22.392Z,9.97
2023-02-16T21:03:50.373Z,10.10
2023-02-16T21:06:18.309Z,10.26
2023-02-16T21:08:46.196Z,10.29
2023-02-16T21:11:14.468Z,10.47
2023-02-16T21:13:42.851Z,10.45
2023-02-16T21:16:10.974Z,10.50
2023-02-16T21:18:40.708Z,10.52
2023-02-16T21:21:09.402Z,10.71
2023-02-16T21:23:37.565Z,10.82
2023-02-16T21:26:06.707Z,10.87
2023-02-16T21:28:34.545Z,11.00
2023-02-16T21:31:04.144Z,11.04
2023-02-16T21:33:31.838Z,11.11
2023-02-16T21:36:06.206Z,11.12
2023-02-16T21:38:35.838Z,11.04
2023-02-16T21:41:23.123Z,11.03
2023-02-16T21:43:51.093Z,11.27
2023-02-16T21:46:18.797Z,11.35
2023-02-16T21:48:45.472Z,11.44
2023-02-16T21:51:15.264Z,11.59
2023-02-16T21:53:43.528Z,11.67
2023-02-16T21:56:23.915Z,11.64
2023-02-16T21:58:51.571Z,11.56
2023-02-16T22:01:23.767Z,11.58
2023-02-16T22:03:56.009Z,11.47
2023-02-16T22:06:25.895Z,11.42
2023-02-16T22:08:53.828Z,11.33
2023-02-16T22:11:21.413Z,11.28
2023-02-16T22:13:53.187Z,11.29
2023-02-16T22:16:21.369Z,11.36
2023-02-16T22:18:49.894Z,11.34
2023-02-16T22:21:18.043Z,11.27
2023-02-16T22:23:46.950Z,11.16
2023-02-16T22:26:21.575Z,11.04
2023-02-16T22:28:49.289Z,10.94
2023-02-16T22:31:17.444Z,10.84
2023-02-16T22:33:45.103Z,10.77
2023-02-16T22:36:13.998Z,10.71
2023-02-16T22:38:42.285Z,10.68
2023-02-16T22:41:12.947Z,10.65
2023-02-16T22:43:40.996Z,10.54
2023-02-16T22:46:09.896Z,10.49
2023-02-16T22:48:37.501Z,10.55
2023-02-16T22:51:06.857Z,10.52
2023-02-16T22:53:35.442Z,10.61
2023-02-16T22:56:06.048Z,10.61
2023-02-16T22:58:35.874Z,10.58
2023-02-16T23:01:04.158Z,10.73
2023-02-16T23:03:35.100Z,10.71
2023-02-16T23:06:03.298Z,10.69
2023-02-16T23:08:30.946Z,10.73
2023-02-16T23:11:01.602Z,10.70
2023-02-16T23:13:30.864Z,10.85
2023-02-16T23:16:05.029Z,10.89
2023-02-16T23:18:32.832Z,10.90
2023-02-16T23:21:06.227Z,11.12
2023-02-16T23:23:33.797Z,11.09
2023-02-16T23:26:01.443Z,11.24
2023-02-16T23:28:29.027Z,11.29
2023-02-16T23:30:57.842Z,11.38
2023-02-16T23:33:27.033Z,11.60
2023-02-16T23:35:55.710Z,11.66
2023-02-16T23:38:23.372Z,11.75
2023-02-16T23:40:57.301Z,11.70
2023-02-16T23:43:25.280Z,11.64
2023-02-16T23:45:53.390Z,11.57
2023-02-16T23:48:21.313Z,11.70
2023-02-16T23:50:50.545Z,11.69
2023-02-16T23:53:18.880Z,11.77
2023-02-16T23:55:46.728Z,11.78
2023-02-16T23:58:14.312Z,11.89
